createdAt,value
2022-11-23T00:30:00.338Z,6.33
2022-11-23T00:32:36.408Z,6.80
2022-11-23T00:35:14.490Z,6.10
2022-11-23T00:37:59.777Z,7.45
2022-11-23T00:41:18.580Z,4.00
2022-11-23T00:43:38.264Z,5.12
2022-11-23T00:46:37.342Z,4.05
2022-11-23T00:53:04.654Z,4.78
2022-11-23T01:20:51.174Z,5.75
2022-11-23T01:23:32.798Z,4.67
2022-11-23T01:26:11.504Z,4.35
2022-11-23T01:28:54.219Z,4.20
2022-11-23T01:31:48.828Z,5.75
2022-11-23T01:34:54.166Z,4.20
2022-11-23T01:40:44.269Z,3.50
2022-11-23T01:43:22.692Z,3.35
2022-11-23T01:46:22.914Z,3.40
2022-11-23T01:49:40.940Z,3.60
2022-11-23T02:32:13.979Z,6.17
2022-11-23T02:34:52.802Z,6.50
2022-11-23T02:37:28.378Z,7.53
2022-11-23T02:40:09.799Z,6.47
2022-11-23T02:43:14.086Z,6.83
2022-11-23T02:46:17.111Z,6.65
2022-11-23T02:49:22.279Z,5.45
2022-11-23T02:55:58.764Z,6.70
2022-11-23T03:19:33.478Z,2.92
2022-11-23T03:22:08.042Z,5.42
2022-11-23T03:24:40.233Z,2.40
2022-11-23T03:27:19.871Z,2.58
2022-11-23T03:29:52.875Z,4.78
2022-11-23T03:32:47.059Z,4.40
2022-11-23T03:39:09.043Z,5.15
2022-11-23T03:41:54.648Z,3.75
2022-11-23T03:45:20.067Z,7.60
2022-11-23T03:48:36.089Z,3.47
2022-11-23T03:57:55.522Z,6.15
2022-11-23T04:00:23.638Z,4.78
2022-11-23T04:02:51.638Z,6.58
2022-11-23T04:05:30.197Z,4.17
2022-11-23T04:08:06.197Z,3.22
2022-11-23T04:10:34.343Z,4.85
2022-11-23T04:15:37.517Z,4.70
2022-11-23T04:18:06.126Z,5.45
2022-11-23T04:20:33.967Z,6.62
2022-11-23T04:23:01.801Z,4.03
2022-11-23T04:25:30.079Z,5.03
2022-11-23T04:27:58.740Z,5.25
2022-11-23T04:30:26.969Z,3.65
2022-11-23T04:32:56.698Z,3.92
2022-11-23T04:35:24.676Z,5.35
2022-11-23T04:37:53.668Z,5.37
2022-11-23T04:40:23.279Z,4.75
2022-11-23T04:43:00.351Z,5.70
2022-11-23T04:45:25.739Z,3.75
2022-11-23T04:47:54.424Z,4.37
2022-11-23T04:50:23.208Z,2.92
2022-11-23T04:52:52.615Z,12.63
2022-11-23T04:55:22.155Z,8.83
2022-11-23T04:57:51.742Z,4.30
2022-11-23T05:00:19.828Z,4.08
2022-11-23T05:02:48.129Z,3.45
2022-11-23T05:05:17.871Z,5.28
2022-11-23T05:07:45.481Z,4.33
2022-11-23T05:10:13.329Z,4.35
2022-11-23T05:12:43.141Z,3.62
2022-11-23T05:15:15.865Z,3.15
2022-11-23T05:17:46.302Z,4.40
2022-11-23T05:20:16.577Z,8.30
2022-11-23T05:22:46.174Z,4.58
2022-11-23T05:25:15.740Z,7.08
2022-11-23T05:27:44.876Z,5.20
2022-11-23T05:30:16.296Z,6.55
2022-11-23T05:32:45.996Z,4.08
2022-11-23T05:35:14.696Z,9.95
2022-11-23T05:37:42.484Z,7.47
2022-11-23T05:40:12.234Z,9.33
2022-11-23T05:42:40.190Z,8.13
2022-11-23T05:45:12.804Z,9.38
2022-11-23T05:47:42.444Z,6.20
2022-11-23T05:50:12.518Z,13.25
2022-11-23T05:52:42.523Z,7.08
2022-11-23T05:55:11.232Z,7.85
2022-11-23T05:57:39.748Z,8.13
2022-11-23T06:00:12.458Z,7.03
2022-11-23T06:02:44.680Z,8.70
2022-11-23T06:05:13.087Z,9.20
2022-11-23T06:07:42.869Z,7.78
2022-11-23T06:10:13.063Z,7.10
2022-11-23T06:12:43.035Z,9.88
2022-11-23T06:15:18.692Z,8.15
2022-11-23T06:17:49.422Z,12.05
2022-11-23T06:20:19.240Z,14.33
2022-11-23T06:22:55.042Z,12.37
2022-11-23T06:25:24.628Z,16.90
2022-11-23T06:27:56.653Z,24.07
2022-11-23T06:30:28.278Z,15.93
2022-11-23T06:32:58.060Z,13.53
2022-11-23T06:35:25.872Z,13.38
2022-11-23T06:37:54.309Z,15.30
2022-11-23T06:40:22.432Z,17.65
2022-11-23T06:42:52.770Z,11.88
2022-11-23T06:45:22.579Z,16.57
2022-11-23T06:47:55.906Z,15.65
2022-11-23T06:50:23.987Z,15.45
2022-11-23T06:52:57.014Z,15.83
2022-11-23T06:55:27.090Z,15.43
2022-11-23T06:57:58.431Z,12.82
2022-11-23T07:00:26.372Z,10.20
2022-11-23T07:02:56.060Z,10.10
2022-11-23T07:05:25.514Z,13.88
2022-11-23T07:07:54.478Z,14.30
2022-11-23T07:10:25.377Z,14.07
2022-11-23T07:12:55.125Z,13.53
2022-11-23T07:15:23.392Z,12.25
2022-11-23T07:17:54.595Z,15.83
2022-11-23T07:20:23.216Z,9.95
2022-11-23T07:23:02.896Z,10.48
2022-11-23T07:25:33.374Z,11.10
2022-11-23T07:28:02.460Z,8.43
2022-11-23T07:30:32.933Z,6.78
2022-11-23T07:33:04.468Z,6.50
2022-11-23T07:35:32.830Z,7.05
2022-11-23T07:38:01.055Z,9.15
2022-11-23T07:40:29.320Z,9.35
2022-11-23T07:43:02.309Z,5.60
2022-11-23T07:45:30.485Z,6.20
2022-11-23T07:48:03.688Z,6.65
2022-11-23T07:50:32.423Z,7.92
2022-11-23T07:53:03.369Z,10.03
2022-11-23T07:55:31.359Z,7.78
2022-11-23T07:57:59.850Z,10.88
2022-11-23T08:00:29.372Z,15.20
2022-11-23T08:03:26.276Z,9.58
2022-11-23T08:05:28.757Z,14.28
2022-11-23T08:08:01.265Z,10.20
2022-11-23T08:10:30.925Z,15.70
2022-11-23T08:13:00.357Z,22.13
2022-11-23T08:15:28.286Z,13.25
2022-11-23T08:17:59.027Z,14.55
2022-11-23T08:20:29.258Z,9.85
2022-11-23T08:22:57.971Z,14.07
2022-11-23T08:25:28.229Z,12.03
2022-11-23T08:28:02.440Z,7.65
2022-11-23T08:30:32.166Z,10.50
2022-11-23T08:33:06.451Z,8.00
2022-11-23T08:35:39.121Z,10.63
2022-11-23T08:38:09.712Z,15.75
2022-11-23T08:40:38.377Z,15.70
2022-11-23T08:43:06.876Z,17.70
2022-11-23T08:45:34.680Z,14.18
2022-11-23T08:48:05.126Z,18.92
2022-11-23T08:50:34.838Z,13.53
2022-11-23T08:53:02.987Z,12.33
2022-11-23T08:55:30.707Z,14.43
2022-11-23T08:57:59.759Z,15.43
2022-11-23T09:00:27.971Z,20.68
2022-11-23T09:02:58.420Z,21.77
2022-11-23T09:05:28.759Z,17.98
2022-11-23T09:08:01.618Z,14.40
2022-11-23T09:10:29.726Z,15.30
2022-11-23T09:12:59.048Z,19.02
2022-11-23T09:15:26.994Z,15.20
2022-11-23T09:17:56.115Z,16.40
2022-11-23T09:20:24.205Z,14.05
2022-11-23T09:22:53.975Z,12.73
2022-11-23T09:25:22.830Z,12.82
2022-11-23T09:27:59.253Z,15.43
2022-11-23T09:30:28.109Z,17.52
2022-11-23T09:32:57.776Z,18.37
2022-11-23T09:35:26.263Z,10.70
2022-11-23T09:37:58.551Z,15.95
2022-11-23T09:40:34.667Z,17.90
2022-11-23T09:43:31.861Z,16.77
2022-11-23T09:46:05.037Z,16.87
2022-11-23T09:49:04.327Z,18.00
2022-11-23T09:51:34.407Z,11.28
2022-11-23T09:54:13.448Z,11.22
2022-11-23T09:56:42.913Z,10.85
2022-11-23T09:59:32.060Z,13.35
2022-11-23T10:02:01.435Z,11.00
2022-11-23T10:04:35.815Z,8.63
2022-11-23T10:07:23.766Z,10.47
2022-11-23T10:10:21.484Z,10.32
2022-11-23T10:13:03.437Z,11.33
2022-11-23T10:15:39.326Z,12.90
2022-11-23T10:18:37.223Z,9.58
2022-11-23T10:21:31.740Z,11.28
2022-11-23T10:24:19.588Z,11.35
2022-11-23T10:26:49.931Z,9.75
2022-11-23T10:29:26.460Z,9.95
2022-11-23T10:31:57.303Z,9.83
2022-11-23T10:34:32.739Z,11.45
2022-11-23T10:37:00.966Z,11.40
2022-11-23T10:39:28.926Z,14.45
2022-11-23T10:42:01.408Z,16.80
2022-11-23T10:44:38.065Z,21.00
2022-11-23T10:47:06.169Z,18.02
2022-11-23T10:49:35.838Z,21.77
2022-11-23T10:52:32.652Z,18.12
2022-11-23T10:55:05.251Z,9.98
2022-11-23T10:57:43.230Z,9.53
2022-11-23T11:00:16.424Z,7.87
2022-11-23T11:02:48.146Z,12.88
2022-11-23T11:06:07.417Z,7.60
2022-11-23T11:08:16.769Z,5.47
2022-11-23T11:11:02.080Z,8.73
2022-11-23T11:13:43.465Z,6.58
2022-11-23T11:16:37.176Z,7.72
2022-11-23T11:19:27.515Z,8.43
2022-11-23T11:21:57.252Z,5.17
2022-11-23T11:24:42.232Z,9.20
2022-11-23T11:27:23.404Z,13.80
2022-11-23T11:29:59.376Z,13.10
2022-11-23T11:32:41.614Z,12.90
2022-11-23T11:35:23.695Z,19.27
2022-11-23T11:37:55.578Z,23.15
2022-11-23T11:40:46.850Z,17.57
2022-11-23T11:43:40.261Z,14.95
2022-11-23T11:46:31.284Z,11.70
2022-11-23T11:48:54.620Z,11.88
2022-11-23T11:51:42.527Z,10.58
2022-11-23T11:54:31.707Z,17.87
2022-11-23T11:57:08.530Z,11.83
2022-11-23T11:59:43.262Z,12.95
2022-11-23T12:02:27.399Z,18.43
2022-11-23T12:05:15.898Z,12.68
2022-11-23T12:08:12.422Z,11.48
2022-11-23T12:11:01.605Z,11.00
2022-11-23T12:13:33.261Z,14.70
2022-11-23T12:16:39.813Z,15.98
2022-11-23T12:19:18.978Z,11.83
2022-11-23T12:22:26.782Z,12.20
2022-11-23T12:25:18.734Z,10.75
2022-11-23T12:28:16.157Z,14.95
2022-11-23T12:31:21.876Z,11.48
2022-11-23T12:34:29.156Z,9.57
2022-11-23T12:37:14.724Z,12.23
2022-11-23T12:40:24.681Z,13.62
2022-11-23T12:43:04.093Z,9.28
2022-11-23T12:45:44.339Z,12.18
2022-11-23T12:48:32.707Z,12.78
2022-11-23T12:51:05.806Z,11.97
2022-11-23T12:54:02.152Z,11.65
2022-11-23T12:59:24.943Z,13.15
2022-11-23T13:02:01.056Z,10.18
2022-11-23T13:04:46.810Z,8.65
2022-11-23T13:07:44.887Z,9.50
2022-11-23T13:10:33.459Z,8.77
2022-11-23T13:13:31.073Z,12.82
2022-11-23T13:16:36.428Z,9.63
2022-11-23T13:19:43.361Z,13.75
2022-11-23T13:22:15.668Z,10.65
2022-11-23T13:25:11.902Z,7.92
2022-11-23T13:27:50.843Z,16.40
2022-11-23T13:31:14.700Z,14.95
2022-11-23T13:33:28.530Z,11.53
2022-11-23T13:36:03.590Z,16.00
2022-11-23T13:38:50.274Z,12.13
2022-11-23T13:41:44.495Z,10.03
2022-11-23T13:44:30.481Z,11.22
2022-11-23T13:47:26.404Z,10.38
2022-11-23T13:50:32.866Z,12.35
2022-11-23T13:52:54.162Z,21.60
2022-11-23T13:55:32.779Z,19.23
2022-11-23T13:58:26.036Z,18.50
2022-11-23T14:00:57.156Z,20.82
2022-11-23T14:03:50.067Z,20.50
2022-11-23T14:06:35.115Z,15.93
2022-11-23T14:09:25.166Z,14.85
2022-11-23T14:12:07.108Z,11.40
2022-11-23T14:14:55.506Z,14.13
2022-11-23T14:18:14.775Z,11.22
2022-11-23T14:21:03.230Z,11.68
2022-11-23T14:24:19.879Z,13.32
2022-11-23T14:27:39.098Z,20.43
2022-11-23T14:30:20.316Z,16.62
2022-11-23T14:33:09.292Z,16.70
2022-11-23T14:36:12.814Z,13.98
2022-11-23T14:39:21.579Z,13.25
2022-11-23T14:42:01.714Z,12.88
2022-11-23T14:44:38.421Z,18.55
2022-11-23T14:47:11.692Z,17.10
2022-11-23T14:49:50.939Z,14.68
2022-11-23T14:52:23.546Z,10.63
2022-11-23T14:54:55.332Z,13.05
2022-11-23T14:57:29.565Z,12.45
2022-11-23T15:00:05.781Z,17.85
2022-11-23T15:02:39.607Z,15.03
2022-11-23T15:08:08.720Z,14.90
2022-11-23T15:11:15.354Z,17.52
2022-11-23T15:16:16.292Z,17.62
2022-11-23T15:18:47.919Z,17.62
2022-11-23T15:21:36.045Z,15.65
2022-11-23T15:24:05.014Z,12.70
2022-11-23T15:26:48.149Z,12.78
2022-11-23T15:29:03.916Z,9.43
2022-11-23T15:31:37.185Z,9.48
2022-11-23T15:34:17.026Z,10.75
2022-11-23T15:36:46.217Z,10.10
2022-11-23T15:39:21.462Z,11.95
2022-11-23T15:44:25.674Z,10.10
2022-11-23T15:47:05.598Z,8.90
2022-11-23T15:49:40.375Z,8.78
2022-11-23T15:52:12.465Z,9.03
2022-11-23T15:54:40.486Z,8.08
2022-11-23T15:57:21.910Z,8.53
2022-11-23T15:59:57.306Z,9.90
2022-11-23T16:02:28.904Z,12.15
2022-11-23T16:05:13.863Z,15.23
2022-11-23T16:07:58.836Z,15.95
2022-11-23T16:10:32.774Z,15.95
2022-11-23T16:13:07.840Z,13.58
2022-11-23T16:15:42.049Z,12.70
2022-11-23T16:18:25.064Z,13.27
2022-11-23T16:20:59.596Z,12.50
2022-11-23T16:23:32.549Z,22.87
2022-11-23T16:26:04.039Z,35.50
2022-11-23T16:28:38.405Z,33.55
2022-11-23T16:31:06.668Z,22.67
2022-11-23T16:33:36.709Z,26.17
2022-11-23T16:36:05.351Z,26.73
2022-11-23T16:38:33.206Z,28.38
2022-11-23T16:41:00.791Z,24.67
2022-11-23T16:43:28.423Z,29.55
2022-11-23T16:45:56.161Z,27.30
2022-11-23T16:48:35.409Z,24.23
2022-11-23T16:51:03.217Z,25.62
2022-11-23T16:53:53.312Z,17.48
2022-11-23T16:56:12.980Z,21.40
2022-11-23T16:58:41.063Z,25.37
2022-11-23T17:01:16.953Z,19.15
2022-11-23T17:03:48.579Z,16.80
2022-11-23T17:06:17.953Z,17.57
2022-11-23T17:08:46.321Z,20.85
2022-11-23T17:11:20.335Z,16.32
2022-11-23T17:13:51.131Z,20.17
2022-11-23T17:16:23.531Z,26.17
2022-11-23T17:18:51.334Z,24.32
2022-11-23T17:21:19.246Z,24.27
2022-11-23T17:23:46.913Z,25.43
2022-11-23T17:26:37.227Z,28.40
2022-11-23T17:29:09.509Z,30.88
2022-11-23T17:31:37.447Z,35.98
2022-11-23T17:34:05.030Z,43.83
2022-11-23T17:36:34.029Z,44.25
2022-11-23T17:39:01.730Z,38.65
2022-11-23T17:41:29.619Z,44.25
2022-11-23T17:43:59.462Z,28.57
2022-11-23T17:46:31.460Z,22.45
2022-11-23T17:49:01.473Z,18.07
2022-11-23T17:51:29.577Z,18.55
2022-11-23T17:53:58.156Z,18.37
2022-11-23T17:56:26.660Z,17.02
2022-11-23T17:58:58.303Z,19.23
2022-11-23T18:01:28.817Z,22.50
2022-11-23T18:03:57.114Z,20.40
2022-11-23T18:06:24.972Z,20.77
2022-11-23T18:08:53.180Z,24.87
2022-11-23T18:11:22.241Z,22.37
2022-11-23T18:13:52.989Z,21.68
2022-11-23T18:16:23.724Z,24.10
2022-11-23T18:18:51.521Z,24.00
2022-11-23T18:21:22.006Z,21.35
2022-11-23T18:23:51.479Z,25.43
2022-11-23T18:26:30.275Z,25.57
2022-11-23T18:28:58.044Z,31.45
2022-11-23T18:31:26.285Z,30.85
2022-11-23T18:33:54.900Z,36.70
2022-11-23T18:36:22.941Z,32.88
2022-11-23T18:39:00.606Z,37.67
2022-11-23T18:44:28.844Z,34.08
2022-11-23T18:47:16.283Z,31.70
2022-11-23T18:49:44.004Z,35.15
2022-11-23T18:52:13.470Z,28.67
2022-11-23T18:54:41.564Z,30.40
2022-11-23T18:57:16.602Z,30.45
2022-11-23T18:59:57.950Z,27.52
2022-11-23T19:02:17.680Z,26.95
2022-11-23T19:04:45.324Z,26.82
2022-11-23T19:07:12.995Z,27.87
2022-11-23T19:09:41.628Z,31.27
2022-11-23T19:12:09.624Z,31.50
2022-11-23T19:14:39.063Z,28.77
2022-11-23T19:17:07.298Z,26.45
2022-11-23T19:19:37.239Z,27.73
2022-11-23T19:22:09.800Z,30.45
2022-11-23T19:24:43.852Z,33.28
2022-11-23T19:27:18.557Z,33.38
2022-11-23T19:29:48.937Z,33.88
2022-11-23T19:32:17.994Z,32.53
2022-11-23T19:34:46.211Z,38.20
2022-11-23T19:37:17.156Z,33.38
2022-11-23T19:39:57.488Z,34.15
2022-11-23T19:42:25.620Z,35.08
2022-11-23T19:44:53.481Z,34.88
2022-11-23T19:47:23.113Z,40.80
2022-11-23T19:49:51.057Z,47.25
2022-11-23T19:52:20.848Z,49.20
2022-11-23T19:55:05.565Z,41.73
2022-11-23T19:57:33.876Z,38.58
2022-11-23T20:00:03.031Z,37.90
2022-11-23T20:02:44.498Z,42.73
2022-11-23T20:08:50.298Z,40.95
2022-11-23T20:14:39.172Z,37.30
2022-11-23T20:17:08.829Z,27.32
2022-11-23T20:19:36.839Z,27.52
2022-11-23T20:22:04.657Z,22.73
2022-11-23T20:24:32.398Z,23.65
2022-11-23T20:27:00.112Z,21.45
2022-11-23T20:29:32.777Z,21.97
2022-11-23T20:32:01.739Z,17.30
2022-11-23T20:34:30.523Z,17.82
2022-11-23T20:36:59.663Z,18.80
2022-11-23T20:39:27.767Z,18.77
2022-11-23T20:41:57.139Z,19.48
2022-11-23T20:44:33.696Z,16.80
2022-11-23T20:47:03.295Z,21.45
2022-11-23T20:49:33.871Z,20.57
2022-11-23T20:52:01.895Z,21.37
2022-11-23T20:54:30.009Z,16.30
2022-11-23T20:57:01.640Z,16.67
2022-11-23T20:59:30.135Z,17.65
2022-11-23T21:01:58.067Z,18.07
2022-11-23T21:04:26.286Z,21.52
2022-11-23T21:06:54.609Z,17.02
2022-11-23T21:09:23.578Z,19.23
2022-11-23T21:12:10.340Z,22.40
2022-11-23T21:14:38.209Z,25.32
2022-11-23T21:17:06.219Z,25.32
2022-11-23T21:19:40.330Z,24.32
2022-11-23T21:22:12.484Z,22.40
2022-11-23T21:24:41.071Z,26.55
2022-11-23T21:27:12.656Z,25.40
2022-11-23T21:29:45.484Z,26.75
2022-11-23T21:32:15.198Z,24.27
2022-11-23T21:34:43.257Z,20.62
2022-11-23T21:37:12.149Z,24.95
2022-11-23T21:39:41.378Z,27.98
2022-11-23T21:42:09.629Z,26.35
2022-11-23T21:44:37.470Z,26.07
2022-11-23T21:47:08.963Z,23.83
2022-11-23T21:49:38.165Z,28.50
2022-11-23T21:52:05.975Z,28.55
2022-11-23T21:54:37.262Z,29.87
2022-11-23T21:57:08.544Z,25.40
2022-11-23T21:59:36.533Z,24.92
2022-11-23T22:02:04.241Z,19.60
2022-11-23T22:04:32.067Z,23.42
2022-11-23T22:07:00.083Z,18.98
2022-11-23T22:09:29.599Z,16.70
2022-11-23T22:11:57.347Z,20.80
2022-11-23T22:14:26.978Z,17.48
2022-11-23T22:16:56.146Z,17.73
2022-11-23T22:19:24.229Z,21.33
2022-11-23T22:21:51.837Z,19.73
2022-11-23T22:24:21.793Z,18.85
2022-11-23T22:26:49.594Z,19.35
2022-11-23T22:29:17.442Z,20.27
2022-11-23T22:31:45.366Z,17.52
2022-11-23T22:34:13.933Z,21.42
2022-11-23T22:36:42.452Z,18.45
2022-11-23T22:39:11.093Z,18.98
2022-11-23T22:41:39.051Z,20.08
2022-11-23T22:44:09.603Z,19.90
2022-11-23T22:46:39.116Z,23.38
2022-11-23T22:49:07.056Z,27.25
2022-11-23T22:51:35.019Z,36.90
2022-11-23T22:54:03.244Z,35.85
2022-11-23T22:56:31.401Z,30.72
2022-11-23T22:58:59.789Z,28.77
2022-11-23T23:01:30.073Z,28.85
2022-11-23T23:04:00.921Z,27.65
2022-11-23T23:06:35.540Z,27.98
2022-11-23T23:09:06.665Z,25.57
2022-11-23T23:11:36.092Z,23.15
2022-11-23T23:14:04.088Z,23.30
2022-11-23T23:16:32.167Z,23.27
2022-11-23T23:19:00.917Z,20.65
2022-11-23T23:21:29.516Z,19.27
2022-11-23T23:24:00.651Z,17.57
2022-11-23T23:26:28.688Z,19.02
2022-11-23T23:28:58.683Z,18.15
2022-11-23T23:31:27.956Z,19.23
2022-11-23T23:33:56.610Z,18.48
2022-11-23T23:36:25.395Z,18.32
2022-11-23T23:38:53.598Z,16.70
2022-11-23T23:41:21.444Z,18.55
2022-11-23T23:43:50.138Z,19.57
2022-11-23T23:46:18.002Z,17.65
2022-11-23T23:48:46.549Z,20.27
2022-11-23T23:51:24.648Z,18.48
2022-11-23T23:53:53.168Z,16.02
2022-11-23T23:56:24.531Z,19.67
2022-11-23T23:58:55.063Z,19.92
